GMMN/CMN METAR and TAF weather

Enter ICAO airport designator
Station Type Date Time Source
GMMN METAR 2021/01/16 02:30 UTC NOAA

GMMN 160230Z 16003KT 9999 SCT010 04/04 Q1026 NOSIG


Station Type Date Time Source
GMMN Decoded METAR 2021/01/16 02:30 UTC NOAA

Nouasseur, Morocco (GMMN) 33-22N 007-35W 206M
Jan 15, 2021 - 09:30 PM EST / 2021.01.16 0230 UTC
Wind: from the SSE (160 degrees) at 3 MPH (3 KT):0
Visibility: greater than 7 mile(s):0
Sky conditions: partly cloudy
Temperature: 39 F (4 C)
Dew Point: 39 F (4 C)
Relative Humidity: 100%
Pressure (altimeter): 30.30 in. Hg (1026 hPa)
ob: GMMN 160230Z 16003KT 9999 SCT010 04/04 Q1026 NOSIG
cycle: 2

Station Type Date Time Source
GMMN TAF 2021/01/15 18:15 UTC NOAA

TAF COR GMMN 151700Z 1518/1624 02010KT 9999 BKN030
BECMG 1521/1524 16004KT 8000 SCT013
TEMPO 1523/1610 2000 BR BKN008
BECMG 1612/1614 04010KT CAVOK

Example: see airport list